createdAt,value
2023-04-30T00:00:35.957Z,13.10
2023-04-30T00:03:04.568Z,13.00
2023-04-30T00:05:32.363Z,13.00
2023-04-30T00:08:00.095Z,13.00
2023-04-30T00:10:27.754Z,13.00
2023-04-30T00:12:55.441Z,12.90
2023-04-30T00:15:23.138Z,13.00
2023-04-30T00:17:50.776Z,12.90
2023-04-30T00:20:18.512Z,12.90
2023-04-30T00:22:46.087Z,12.90
2023-04-30T00:25:13.731Z,12.90
2023-04-30T00:27:41.766Z,12.90
2023-04-30T00:30:09.535Z,12.90
2023-04-30T00:32:37.113Z,12.90
2023-04-30T00:35:05.017Z,12.90
2023-04-30T00:37:32.724Z,12.90
2023-04-30T00:40:00.484Z,12.90
2023-04-30T00:42:28.132Z,12.90
2023-04-30T00:44:55.707Z,12.90
2023-04-30T00:47:23.386Z,12.90
2023-04-30T00:49:51.815Z,12.90
2023-04-30T00:52:19.728Z,12.80
2023-04-30T00:54:47.501Z,12.80
2023-04-30T00:57:16.481Z,12.80
2023-04-30T00:59:44.193Z,12.80
2023-04-30T01:02:13.052Z,12.90
2023-04-30T01:04:40.951Z,12.90
2023-04-30T01:07:08.578Z,12.80
2023-04-30T01:09:36.717Z,12.80
2023-04-30T01:12:09.973Z,12.80
2023-04-30T01:14:55.695Z,12.80
2023-04-30T01:17:46.599Z,12.80
2023-04-30T01:20:14.368Z,12.80
2023-04-30T01:23:12.973Z,12.70
2023-04-30T01:25:40.694Z,12.70
2023-04-30T01:28:21.944Z,12.70
2023-04-30T01:30:50.728Z,12.70
2023-04-30T01:33:19.280Z,12.70
2023-04-30T01:35:59.809Z,12.70
2023-04-30T01:39:11.604Z,12.70
2023-04-30T01:42:06.946Z,12.60
2023-04-30T01:45:26.960Z,12.60
2023-04-30T01:48:17.697Z,12.60
2023-04-30T01:50:58.554Z,12.60
2023-04-30T01:53:38.537Z,12.60
2023-04-30T01:56:28.401Z,12.60
2023-04-30T01:58:56.669Z,12.60
2023-04-30T02:01:31.215Z,12.60
2023-04-30T02:03:59.567Z,12.50
2023-04-30T02:06:28.814Z,12.60
2023-04-30T02:09:02.532Z,12.60
2023-04-30T02:11:30.340Z,12.50
2023-04-30T02:13:58.075Z,12.60
2023-04-30T02:16:26.115Z,12.60
2023-04-30T02:18:53.914Z,12.60
2023-04-30T02:21:21.765Z,12.50
2023-04-30T02:23:50.064Z,12.50
2023-04-30T02:26:18.061Z,12.50
2023-04-30T02:28:46.017Z,12.40
2023-04-30T02:31:13.623Z,12.40
2023-04-30T02:33:41.212Z,12.40
2023-04-30T02:36:08.765Z,12.40
2023-04-30T02:38:36.291Z,12.40
2023-04-30T02:41:03.966Z,12.40
2023-04-30T02:43:31.475Z,12.40
2023-04-30T02:45:59.263Z,12.40
2023-04-30T02:48:26.947Z,12.40
2023-04-30T02:50:54.551Z,12.50
2023-04-30T02:53:22.062Z,12.40
2023-04-30T02:55:49.609Z,12.50
2023-04-30T02:58:17.155Z,12.50
2023-04-30T03:00:44.673Z,12.50
2023-04-30T03:03:12.334Z,12.50
2023-04-30T03:05:39.910Z,12.50
2023-04-30T03:08:07.422Z,12.50
2023-04-30T03:13:12.339Z,12.40
2023-04-30T03:15:39.862Z,12.50
2023-04-30T03:18:07.555Z,12.50
2023-04-30T03:20:35.111Z,12.40
2023-04-30T03:23:03.078Z,12.40
2023-04-30T03:25:30.687Z,12.40
2023-04-30T03:27:58.580Z,12.40
2023-04-30T03:30:26.515Z,12.40
2023-04-30T03:32:54.059Z,12.30
2023-04-30T03:35:21.849Z,12.40
2023-04-30T03:37:49.447Z,12.30
2023-04-30T03:40:17.056Z,12.40
2023-04-30T03:42:44.982Z,12.30
2023-04-30T03:45:12.509Z,12.30
2023-04-30T03:47:40.157Z,12.30
2023-04-30T03:50:08.782Z,12.30
2023-04-30T03:52:39.191Z,12.30
2023-04-30T03:55:07.411Z,12.30
2023-04-30T03:57:35.034Z,12.20
2023-04-30T04:00:07.774Z,12.20
2023-04-30T04:02:41.173Z,12.20
2023-04-30T04:05:11.584Z,12.20
2023-04-30T04:07:39.133Z,12.20
2023-04-30T04:10:07.823Z,12.10
2023-04-30T05:12:38.773Z,11.50
2023-04-30T05:15:07.095Z,11.40
2023-04-30T05:17:34.748Z,11.30
2023-04-30T05:20:02.528Z,11.30
2023-04-30T05:22:30.048Z,11.30
2023-04-30T05:24:57.652Z,11.30
2023-04-30T05:27:25.180Z,11.40
2023-04-30T05:29:52.863Z,11.40
2023-04-30T05:32:20.698Z,11.40
2023-04-30T05:34:48.207Z,11.50
2023-04-30T05:37:17.713Z,11.50
2023-04-30T05:39:45.465Z,11.60
2023-04-30T05:42:13.002Z,11.60
2023-04-30T05:44:41.333Z,11.60
2023-04-30T05:47:09.088Z,11.60
2023-04-30T05:49:36.624Z,11.70
2023-04-30T05:52:04.350Z,11.70
2023-04-30T05:54:31.962Z,11.70
2023-04-30T05:56:59.586Z,11.80
2023-04-30T05:59:27.125Z,11.80
2023-04-30T06:01:54.747Z,11.80
2023-04-30T06:04:22.302Z,11.80
2023-04-30T06:06:49.822Z,11.80
2023-04-30T06:09:17.454Z,11.80
2023-04-30T06:11:45.826Z,11.70
2023-04-30T06:14:13.436Z,11.80
2023-04-30T06:16:41.308Z,11.70
2023-04-30T06:19:09.108Z,11.70
2023-04-30T06:21:36.624Z,11.70
2023-04-30T06:24:04.299Z,11.70
2023-04-30T06:26:32.323Z,11.70
2023-04-30T06:28:59.831Z,11.70
2023-04-30T06:31:27.589Z,11.70
2023-04-30T06:33:55.223Z,11.70
2023-04-30T06:36:22.904Z,11.80
2023-04-30T06:38:50.512Z,11.80
2023-04-30T06:41:18.308Z,11.90
2023-04-30T06:43:45.861Z,11.90
2023-04-30T06:46:15.225Z,12.00
2023-04-30T06:48:42.850Z,12.00
2023-04-30T06:51:10.982Z,12.10
2023-04-30T06:53:38.633Z,12.10
2023-04-30T06:56:06.609Z,12.10
2023-04-30T06:58:34.192Z,12.20
2023-04-30T07:01:01.825Z,12.30
2023-04-30T07:03:29.520Z,12.30
2023-04-30T07:05:57.646Z,12.30
2023-04-30T07:08:25.273Z,12.30
2023-04-30T07:10:52.786Z,12.50
2023-04-30T07:13:20.278Z,12.40
2023-04-30T07:15:47.984Z,12.50
2023-04-30T07:18:16.286Z,12.60
2023-04-30T07:20:43.821Z,12.70
2023-04-30T07:23:11.499Z,12.70
2023-04-30T07:25:39.443Z,12.80
2023-04-30T07:28:06.946Z,12.80
2023-04-30T07:30:35.005Z,12.70
2023-04-30T07:33:03.016Z,12.70
2023-04-30T07:35:31.137Z,12.70
2023-04-30T07:37:58.712Z,12.60
2023-04-30T07:40:35.291Z,12.60
2023-04-30T07:43:04.669Z,12.60
2023-04-30T07:45:33.947Z,12.60
2023-04-30T07:48:02.032Z,12.60
2023-04-30T07:50:33.692Z,12.60
2023-04-30T07:53:02.242Z,12.70
2023-04-30T07:55:29.986Z,12.70
2023-04-30T07:57:57.515Z,12.80
2023-04-30T08:00:26.493Z,12.80
2023-04-30T08:02:54.066Z,12.80
2023-04-30T08:05:21.780Z,12.80
2023-04-30T08:07:49.404Z,12.90
2023-04-30T08:10:17.168Z,12.90
2023-04-30T08:12:45.180Z,13.00
2023-04-30T08:15:12.912Z,13.00
2023-04-30T08:17:40.653Z,12.90
2023-04-30T08:20:09.565Z,12.90
2023-04-30T08:22:37.126Z,12.90
2023-04-30T08:25:04.997Z,12.90
2023-04-30T08:27:32.603Z,12.80
2023-04-30T08:30:00.558Z,12.80
2023-04-30T08:32:28.385Z,12.90
2023-04-30T08:34:56.578Z,12.90
2023-04-30T08:37:24.595Z,12.90
2023-04-30T08:39:52.814Z,12.80
2023-04-30T08:42:24.567Z,12.60
2023-04-30T08:44:52.205Z,12.50
2023-04-30T08:47:22.300Z,12.40
2023-04-30T08:49:50.264Z,12.30
2023-04-30T08:54:48.581Z,12.20
2023-04-30T08:57:16.227Z,12.20
2023-04-30T08:59:47.526Z,12.20
2023-04-30T09:02:15.129Z,12.20
2023-04-30T09:04:42.684Z,12.30
2023-04-30T09:07:11.931Z,12.30
2023-04-30T09:09:40.111Z,12.40
2023-04-30T09:12:19.553Z,12.50
2023-04-30T09:15:09.040Z,12.60
2023-04-30T09:17:36.688Z,12.60
2023-04-30T09:20:14.189Z,12.70
2023-04-30T09:22:42.543Z,12.80
2023-04-30T09:25:11.424Z,12.80
2023-04-30T09:27:38.967Z,12.80
2023-04-30T09:30:08.050Z,12.70
2023-04-30T09:32:35.641Z,12.60
2023-04-30T09:35:03.729Z,12.60
2023-04-30T09:37:38.259Z,12.50
2023-04-30T09:40:06.658Z,12.50
2023-04-30T09:42:34.181Z,12.40
2023-04-30T09:45:01.754Z,12.40
2023-04-30T09:47:33.260Z,12.40
2023-04-30T09:50:00.937Z,12.30
2023-04-30T09:52:28.520Z,12.30
2023-04-30T09:54:56.102Z,12.30
2023-04-30T09:57:24.642Z,12.30
2023-04-30T09:59:54.030Z,12.30
2023-04-30T10:02:24.012Z,12.30
2023-04-30T10:04:58.203Z,12.20
2023-04-30T10:07:31.536Z,12.10
2023-04-30T10:10:07.999Z,12.10
2023-04-30T10:12:57.532Z,12.10
2023-04-30T10:15:46.147Z,12.00
2023-04-30T10:18:29.215Z,12.00
2023-04-30T10:20:59.307Z,12.10
2023-04-30T10:23:27.710Z,12.10
2023-04-30T10:25:57.932Z,12.10
2023-04-30T10:28:25.932Z,12.20
2023-04-30T10:30:54.646Z,12.30
2023-04-30T10:33:50.027Z,12.30
2023-04-30T10:36:48.749Z,12.40
2023-04-30T10:39:21.361Z,12.60
2023-04-30T10:41:49.124Z,12.90
2023-04-30T10:44:22.589Z,12.90
2023-04-30T10:46:50.194Z,13.10
2023-04-30T10:49:25.642Z,13.30
2023-04-30T10:51:58.459Z,13.70
2023-04-30T10:54:34.748Z,13.70
2023-04-30T10:57:18.404Z,14.00
2023-04-30T10:59:54.146Z,14.20
2023-04-30T11:02:22.031Z,14.60
2023-04-30T11:05:15.704Z,14.70
2023-04-30T11:07:57.845Z,15.00
2023-04-30T11:10:27.477Z,15.10
2023-04-30T11:12:55.977Z,15.10
2023-04-30T11:15:31.841Z,15.10
2023-04-30T11:17:59.656Z,15.10
2023-04-30T11:20:28.230Z,15.10
2023-04-30T11:23:14.239Z,15.20
2023-04-30T11:25:46.642Z,15.30
2023-04-30T11:28:18.152Z,15.30
2023-04-30T11:30:59.314Z,15.30
2023-04-30T11:33:28.721Z,15.10
2023-04-30T11:35:58.140Z,15.10
2023-04-30T11:38:36.194Z,15.00
2023-04-30T11:41:05.062Z,14.90
2023-04-30T11:43:33.854Z,15.00
2023-04-30T11:46:17.435Z,15.00
2023-04-30T11:48:46.281Z,15.00
2023-04-30T11:51:20.736Z,15.00
2023-04-30T11:53:52.483Z,15.00
2023-04-30T11:56:22.033Z,15.00
2023-04-30T11:58:51.659Z,15.00
2023-04-30T12:01:21.031Z,14.80
2023-04-30T12:03:50.605Z,14.80
2023-04-30T12:06:27.635Z,14.70
2023-04-30T12:09:08.900Z,14.50
2023-04-30T12:11:36.724Z,14.20
2023-04-30T12:14:10.698Z,14.10
2023-04-30T12:16:50.880Z,14.00
2023-04-30T12:19:22.409Z,13.90
2023-04-30T12:21:50.383Z,13.70
2023-04-30T12:24:19.508Z,13.70
2023-04-30T12:26:48.076Z,13.60
2023-04-30T12:29:17.316Z,13.40
2023-04-30T12:31:45.864Z,13.30
2023-04-30T12:34:14.702Z,13.30
2023-04-30T12:36:43.234Z,13.30
2023-04-30T12:39:18.673Z,13.20
2023-04-30T12:41:47.975Z,13.00
2023-04-30T12:44:23.820Z,13.00
2023-04-30T12:46:56.189Z,12.90
2023-04-30T12:49:25.614Z,12.90
2023-04-30T12:52:01.344Z,12.90
2023-04-30T12:54:33.477Z,12.90
2023-04-30T12:57:09.580Z,13.00
2023-04-30T13:00:01.474Z,13.10
2023-04-30T13:02:32.209Z,13.30
2023-04-30T13:04:59.970Z,13.30
2023-04-30T13:07:36.334Z,13.30
2023-04-30T13:10:04.083Z,13.30
2023-04-30T13:12:31.651Z,13.30
2023-04-30T13:14:59.182Z,13.30
2023-04-30T13:17:26.903Z,13.20
2023-04-30T13:19:54.872Z,13.10
2023-04-30T13:22:23.873Z,13.10
2023-04-30T13:24:51.524Z,13.10
2023-04-30T13:27:19.213Z,13.10
2023-04-30T13:29:46.761Z,13.20
2023-04-30T13:32:14.264Z,13.30
2023-04-30T13:34:41.827Z,13.30
2023-04-30T13:37:09.644Z,13.40
2023-04-30T13:39:37.166Z,13.40
2023-04-30T13:42:05.145Z,13.50
2023-04-30T13:44:33.863Z,13.50
2023-04-30T13:47:01.581Z,13.60
2023-04-30T13:49:29.222Z,13.60
2023-04-30T13:51:56.738Z,13.70
2023-04-30T13:54:24.243Z,13.80
2023-04-30T13:56:51.845Z,13.80
2023-04-30T13:59:19.482Z,13.80
2023-04-30T14:01:47.053Z,13.80
2023-04-30T14:04:15.181Z,13.70
2023-04-30T14:06:43.553Z,13.80
2023-04-30T14:09:11.833Z,13.80
2023-04-30T14:11:39.857Z,13.80
2023-04-30T14:14:09.032Z,13.80
2023-04-30T14:16:36.662Z,13.70
2023-04-30T14:19:04.197Z,13.70
2023-04-30T14:21:33.231Z,13.70
2023-04-30T14:24:00.812Z,13.70
2023-04-30T14:26:28.559Z,13.80
2023-04-30T14:28:57.204Z,13.80
2023-04-30T14:31:24.771Z,13.80
2023-04-30T14:33:52.293Z,13.80
2023-04-30T14:36:19.900Z,13.80
2023-04-30T14:38:47.475Z,13.80
2023-04-30T14:41:15.046Z,13.70
2023-04-30T14:43:43.043Z,13.70
2023-04-30T14:46:12.006Z,13.70
2023-04-30T14:48:39.838Z,13.80
2023-04-30T14:51:07.871Z,13.80
2023-04-30T14:53:35.477Z,13.80
2023-04-30T14:56:04.088Z,13.80
2023-04-30T14:58:31.629Z,14.00
2023-04-30T15:00:59.275Z,14.00
2023-04-30T15:03:27.126Z,14.00
2023-04-30T15:05:54.967Z,14.10
2023-04-30T15:08:22.569Z,14.10
2023-04-30T15:10:50.050Z,14.10
2023-04-30T15:13:18.180Z,14.20
2023-04-30T15:15:47.150Z,14.20
2023-04-30T15:18:15.637Z,14.20
2023-04-30T15:20:43.235Z,14.30
2023-04-30T15:23:11.303Z,14.40
2023-04-30T15:25:39.415Z,14.50
2023-04-30T15:28:07.111Z,14.60
2023-04-30T15:30:34.790Z,14.80
2023-04-30T15:33:02.479Z,15.10
2023-04-30T15:35:30.236Z,15.20
2023-04-30T15:37:57.838Z,15.40
2023-04-30T15:40:25.359Z,15.60
2023-04-30T15:42:52.938Z,15.80
2023-04-30T15:45:20.768Z,15.80
2023-04-30T15:47:48.349Z,15.90
2023-04-30T15:50:15.888Z,16.00
2023-04-30T15:52:43.504Z,16.10
2023-04-30T15:55:10.986Z,16.20
2023-04-30T15:57:38.610Z,16.50
2023-04-30T16:00:06.860Z,16.70
2023-04-30T16:02:39.434Z,16.60
2023-04-30T16:05:07.787Z,16.50
2023-04-30T16:07:37.545Z,16.40
2023-04-30T16:10:06.952Z,16.40
2023-04-30T16:12:34.462Z,16.50
2023-04-30T16:15:02.079Z,16.50
2023-04-30T16:17:31.104Z,16.40
2023-04-30T16:20:00.014Z,16.20
2023-04-30T16:22:28.242Z,16.00
2023-04-30T16:24:55.906Z,15.90
2023-04-30T16:27:24.111Z,15.70
2023-04-30T16:29:51.628Z,15.50
2023-04-30T16:32:19.311Z,15.20
2023-04-30T16:34:46.961Z,15.10
2023-04-30T16:37:14.477Z,15.10
2023-04-30T16:39:41.967Z,15.00
2023-04-30T16:42:09.604Z,14.90
2023-04-30T16:44:37.393Z,14.90
2023-04-30T16:47:05.021Z,14.90
2023-04-30T16:49:32.597Z,14.90
2023-04-30T16:52:00.223Z,14.90
2023-04-30T16:54:27.994Z,14.90
2023-04-30T16:56:55.576Z,14.80
2023-04-30T16:59:24.660Z,14.70
2023-04-30T17:01:56.368Z,14.70
2023-04-30T17:04:24.475Z,14.70
2023-04-30T17:06:52.041Z,14.70
2023-04-30T17:09:19.902Z,14.80
2023-04-30T17:11:47.542Z,15.10
2023-04-30T17:14:15.337Z,15.10
2023-04-30T17:16:43.918Z,15.20
2023-04-30T17:19:11.567Z,15.40
2023-04-30T17:21:39.139Z,15.80
2023-04-30T17:24:06.979Z,15.80
2023-04-30T17:26:34.500Z,16.00
2023-04-30T17:29:02.063Z,16.00
2023-04-30T17:31:31.185Z,15.90
2023-04-30T17:34:00.172Z,15.80
2023-04-30T17:36:28.894Z,15.70
2023-04-30T17:38:56.935Z,15.60
2023-04-30T17:41:49.604Z,15.30
2023-04-30T17:44:19.521Z,15.40
2023-04-30T17:46:47.354Z,15.30
2023-04-30T17:49:14.951Z,15.20
2023-04-30T17:51:42.747Z,14.90
2023-04-30T17:54:10.341Z,14.80
2023-04-30T17:56:38.820Z,14.70
2023-04-30T17:59:07.078Z,14.60
2023-04-30T18:01:34.633Z,14.50
2023-04-30T18:04:03.763Z,14.50
2023-04-30T18:06:31.458Z,14.50
2023-04-30T18:09:01.369Z,14.40
2023-04-30T18:11:28.930Z,14.30
2023-04-30T18:13:56.543Z,14.30
2023-04-30T18:16:24.109Z,14.30
2023-04-30T18:18:51.672Z,14.20
2023-04-30T18:21:19.280Z,14.20
2023-04-30T18:23:48.029Z,14.20
2023-04-30T18:26:15.612Z,14.20
2023-04-30T18:28:43.150Z,14.20
2023-04-30T18:31:11.728Z,14.20
2023-04-30T18:33:39.855Z,14.20
2023-04-30T18:36:08.054Z,14.20
2023-04-30T18:38:35.615Z,14.10
2023-04-30T18:41:03.153Z,14.10
2023-04-30T18:43:31.075Z,14.10
2023-04-30T18:45:58.870Z,14.00
2023-04-30T18:48:26.683Z,14.10
2023-04-30T18:50:54.220Z,14.10
2023-04-30T18:53:21.767Z,14.10
2023-04-30T18:55:49.257Z,14.00
2023-04-30T18:58:16.795Z,14.00
2023-04-30T19:00:44.654Z,14.00
2023-04-30T19:03:12.739Z,13.90
2023-04-30T19:05:42.686Z,13.80
2023-04-30T19:08:10.293Z,13.80
2023-04-30T19:10:37.814Z,13.70
2023-04-30T19:13:07.323Z,13.60
2023-04-30T19:15:35.840Z,13.50
2023-04-30T19:18:03.878Z,13.50
2023-04-30T19:20:32.013Z,13.40
2023-04-30T19:22:59.528Z,13.30
2023-04-30T19:25:27.499Z,13.30
2023-04-30T19:27:55.160Z,13.20
2023-04-30T19:30:22.755Z,13.10
2023-04-30T19:32:50.421Z,13.00
2023-04-30T19:35:18.028Z,13.00
2023-04-30T19:37:45.810Z,12.80
2023-04-30T19:40:14.404Z,12.80
2023-04-30T19:42:42.305Z,12.60
2023-04-30T19:45:10.850Z,12.60
2023-04-30T19:47:38.666Z,12.60
2023-04-30T19:50:06.969Z,12.50
2023-04-30T19:52:34.792Z,12.50
2023-04-30T19:55:02.714Z,12.40
2023-04-30T19:57:34.984Z,12.40
2023-04-30T20:00:04.476Z,12.40
2023-04-30T20:02:34.927Z,12.30
2023-04-30T20:05:03.994Z,12.30
2023-04-30T20:07:32.577Z,12.30
2023-04-30T20:10:00.201Z,12.20
2023-04-30T20:12:28.328Z,12.20
2023-04-30T20:14:55.841Z,12.10
2023-04-30T20:17:23.411Z,12.10
2023-04-30T20:19:50.964Z,12.10
2023-04-30T20:22:18.760Z,12.10
2023-04-30T20:24:46.570Z,12.10
2023-04-30T20:27:14.098Z,12.00
2023-04-30T20:29:41.665Z,12.00
2023-04-30T20:32:09.590Z,11.90
2023-04-30T20:34:37.485Z,11.90
2023-04-30T20:37:05.716Z,11.80
2023-04-30T20:39:33.327Z,11.70
2023-04-30T20:42:01.654Z,11.70
2023-04-30T20:44:29.578Z,11.70
2023-04-30T20:46:57.139Z,11.70
2023-04-30T20:49:27.002Z,11.70
2023-04-30T20:51:54.705Z,11.70
2023-04-30T20:54:22.501Z,11.70
2023-04-30T20:56:50.341Z,11.70
2023-04-30T20:59:17.844Z,11.60
2023-04-30T21:01:45.526Z,11.50
2023-04-30T21:04:13.174Z,11.50
2023-04-30T21:06:40.766Z,11.50
2023-04-30T21:09:08.647Z,11.40
2023-04-30T21:14:06.541Z,11.30
2023-04-30T21:16:34.216Z,11.30
2023-04-30T21:19:01.791Z,11.30
2023-04-30T21:21:29.536Z,11.20
2023-04-30T21:23:57.502Z,11.20
2023-04-30T21:26:25.010Z,11.20
2023-04-30T21:28:52.638Z,11.30
2023-04-30T21:31:20.438Z,11.20
2023-04-30T21:33:48.294Z,11.20
2023-04-30T21:36:18.959Z,11.30
2023-04-30T21:38:46.616Z,11.30
2023-04-30T21:41:15.589Z,11.30
2023-04-30T21:43:44.141Z,11.30
2023-04-30T21:46:13.421Z,11.40
2023-04-30T21:48:41.245Z,11.40
2023-04-30T21:51:17.094Z,11.30
2023-04-30T21:53:45.638Z,11.30
2023-04-30T21:56:13.541Z,11.30
2023-04-30T21:58:41.074Z,11.30
2023-04-30T22:01:08.773Z,11.20
2023-04-30T22:03:36.530Z,11.20
2023-04-30T22:06:04.353Z,11.20
2023-04-30T22:08:31.936Z,11.20
2023-04-30T22:11:00.736Z,11.20
2023-04-30T22:13:28.961Z,11.10
2023-04-30T22:15:56.922Z,11.10
2023-04-30T22:18:25.092Z,11.00
2023-04-30T22:20:52.670Z,11.00
2023-04-30T22:23:21.504Z,11.00
2023-04-30T22:25:50.566Z,10.90
2023-04-30T22:28:19.340Z,10.90
2023-04-30T22:30:47.290Z,10.80
2023-04-30T22:33:15.065Z,10.80
2023-04-30T22:35:42.665Z,10.80
2023-04-30T22:38:11.076Z,10.70
2023-04-30T22:40:41.932Z,10.70
2023-04-30T22:43:10.001Z,10.60
2023-04-30T22:45:40.385Z,10.60
2023-04-30T22:48:09.857Z,10.60
2023-04-30T22:50:37.907Z,10.50
2023-04-30T22:53:05.537Z,10.50
2023-04-30T22:55:34.957Z,10.50
2023-04-30T22:58:02.466Z,10.40
2023-04-30T23:00:30.204Z,10.40
2023-04-30T23:02:57.765Z,10.30
2023-04-30T23:05:25.613Z,10.30
2023-04-30T23:07:54.168Z,10.30
2023-04-30T23:10:21.679Z,10.20
2023-04-30T23:12:49.191Z,10.20
2023-04-30T23:15:17.856Z,10.20
2023-04-30T23:17:45.588Z,10.10
2023-04-30T23:20:13.205Z,10.10
2023-04-30T23:22:40.806Z,10.10
2023-04-30T23:25:08.609Z,10.00
2023-04-30T23:27:36.520Z,10.00
2023-04-30T23:30:04.709Z,10.10
2023-04-30T23:32:33.396Z,10.00
2023-04-30T23:35:01.053Z,10.10
2023-04-30T23:37:28.664Z,10.10
2023-04-30T23:39:56.527Z,10.10
2023-04-30T23:42:24.379Z,10.10
2023-04-30T23:44:51.921Z,10.10
2023-04-30T23:47:19.408Z,10.10
2023-04-30T23:49:46.924Z,10.10
2023-04-30T23:52:14.507Z,10.20
2023-04-30T23:54:42.066Z,10.20
2023-04-30T23:57:10.262Z,10.20
2023-04-30T23:59:37.861Z,10.20
